sensor_id;sensor_type;location;lat;lon;timestamp;pressure;altitude;pressure_sealevel;temperature;humidity
35655;BME280;21773;50.010;19.972;2023-04-06T00:02:23;99138.38;;;6.40;39.33
35655;BME280;21773;50.010;19.972;2023-04-06T00:05:28;99128.41;;;6.34;39.49
35655;BME280;21773;50.010;19.972;2023-04-06T00:08:32;99136.31;;;6.42;39.32
35655;BME280;21773;50.010;19.972;2023-04-06T00:11:36;99141.69;;;6.42;39.31
35655;BME280;21773;50.010;19.972;2023-04-06T00:14:57;99140.41;;;6.38;39.51
35655;BME280;21773;50.010;19.972;2023-04-06T00:18:01;99139.97;;;6.34;39.45
35655;BME280;21773;50.010;19.972;2023-04-06T00:21:06;99135.78;;;6.32;39.54
35655;BME280;21773;50.010;19.972;2023-04-06T00:24:28;99134.53;;;6.28;39.52
35655;BME280;21773;50.010;19.972;2023-04-06T00:27:32;99135.09;;;6.23;39.91
35655;BME280;21773;50.010;19.972;2023-04-06T00:30:35;99125.13;;;6.17;39.73
35655;BME280;21773;50.010;19.972;2023-04-06T00:33:38;99115.63;;;6.15;39.31
35655;BME280;21773;50.010;19.972;2023-04-06T00:36:43;99129.00;;;6.15;39.72
35655;BME280;21773;50.010;19.972;2023-04-06T00:39:46;99128.38;;;6.13;39.91
35655;BME280;21773;50.010;19.972;2023-04-06T00:43:10;99125.59;;;6.06;40.03
35655;BME280;21773;50.010;19.972;2023-04-06T00:46:14;99120.44;;;6.04;40.16
35655;BME280;21773;50.010;19.972;2023-04-06T00:49:18;99121.28;;;6.05;40.13
35655;BME280;21773;50.010;19.972;2023-04-06T00:52:23;99121.28;;;6.05;40.22
35655;BME280;21773;50.010;19.972;2023-04-06T00:55:27;99124.13;;;6.03;40.19
35655;BME280;21773;50.010;19.972;2023-04-06T00:58:32;99111.50;;;5.97;40.24
35655;BME280;21773;50.010;19.972;2023-04-06T01:01:58;99119.16;;;6.00;40.05
35655;BME280;21773;50.010;19.972;2023-04-06T01:05:11;99111.31;;;5.99;40.23
35655;BME280;21773;50.010;19.972;2023-04-06T01:08:44;99116.84;;;5.97;40.19
35655;BME280;21773;50.010;19.972;2023-04-06T01:12:14;99106.97;;;5.98;40.21
35655;BME280;21773;50.010;19.972;2023-04-06T01:15:18;99108.63;;;5.99;40.19
35655;BME280;21773;50.010;19.972;2023-04-06T01:18:43;99103.00;;;5.94;40.44
35655;BME280;21773;50.010;19.972;2023-04-06T01:21:51;99109.38;;;5.93;40.53
35655;BME280;21773;50.010;19.972;2023-04-06T01:25:24;99109.09;;;5.88;40.33
35655;BME280;21773;50.010;19.972;2023-04-06T01:28:41;99104.09;;;5.85;40.44
35655;BME280;21773;50.010;19.972;2023-04-06T01:32:16;99105.03;;;5.77;40.70
35655;BME280;21773;50.010;19.972;2023-04-06T01:35:27;99104.41;;;5.75;40.48
35655;BME280;21773;50.010;19.972;2023-04-06T01:38:42;99091.56;;;5.71;40.81
35655;BME280;21773;50.010;19.972;2023-04-06T01:41:50;99100.59;;;5.70;40.87
35655;BME280;21773;50.010;19.972;2023-04-06T01:44:55;99097.47;;;5.66;41.01
35655;BME280;21773;50.010;19.972;2023-04-06T01:47:59;99087.25;;;5.55;41.23
35655;BME280;21773;50.010;19.972;2023-04-06T01:51:22;99100.34;;;5.50;41.62
35655;BME280;21773;50.010;19.972;2023-04-06T01:54:30;99096.09;;;5.41;41.54
35655;BME280;21773;50.010;19.972;2023-04-06T01:57:45;99067.78;;;5.17;41.94
35655;BME280;21773;50.010;19.972;2023-04-06T02:00:57;99097.91;;;5.26;42.13
35655;BME280;21773;50.010;19.972;2023-04-06T02:04:04;99085.47;;;5.18;42.37
35655;BME280;21773;50.010;19.972;2023-04-06T02:07:07;99094.84;;;5.14;42.68
35655;BME280;21773;50.010;19.972;2023-04-06T02:10:12;99085.19;;;5.13;42.21
35655;BME280;21773;50.010;19.972;2023-04-06T02:13:37;99081.75;;;5.04;42.70
35655;BME280;21773;50.010;19.972;2023-04-06T02:16:59;99088.13;;;5.03;42.72
35655;BME280;21773;50.010;19.972;2023-04-06T02:20:21;99086.47;;;5.02;42.78
35655;BME280;21773;50.010;19.972;2023-04-06T02:23:43;99085.81;;;5.00;43.23
35655;BME280;21773;50.010;19.972;2023-04-06T02:26:46;99074.28;;;5.00;43.03
35655;BME280;21773;50.010;19.972;2023-04-06T02:29:51;99069.94;;;4.99;42.80
35655;BME280;21773;50.010;19.972;2023-04-06T02:33:13;99075.28;;;4.99;42.54
35655;BME280;21773;50.010;19.972;2023-04-06T02:36:38;99078.78;;;4.99;42.70
35655;BME280;21773;50.010;19.972;2023-04-06T02:40:00;99085.47;;;5.03;42.50
35655;BME280;21773;50.010;19.972;2023-04-06T02:43:25;99085.72;;;5.08;42.40
35655;BME280;21773;50.010;19.972;2023-04-06T02:46:56;99085.53;;;5.10;42.43
35655;BME280;21773;50.010;19.972;2023-04-06T02:50:19;99090.06;;;5.09;42.44
35655;BME280;21773;50.010;19.972;2023-04-06T02:53:30;99088.03;;;5.11;42.26
35655;BME280;21773;50.010;19.972;2023-04-06T02:56:33;99088.66;;;5.13;42.15
35655;BME280;21773;50.010;19.972;2023-04-06T02:59:55;99090.72;;;5.11;42.19
35655;BME280;21773;50.010;19.972;2023-04-06T03:03:09;99094.56;;;5.09;41.83
35655;BME280;21773;50.010;19.972;2023-04-06T03:06:13;99094.03;;;5.13;41.82
35655;BME280;21773;50.010;19.972;2023-04-06T03:09:36;99092.56;;;5.11;41.97
35655;BME280;21773;50.010;19.972;2023-04-06T03:12:58;99084.53;;;5.11;42.13
35655;BME280;21773;50.010;19.972;2023-04-06T03:16:34;99090.72;;;5.11;41.91
35655;BME280;21773;50.010;19.972;2023-04-06T03:19:58;99086.53;;;5.09;41.85
35655;BME280;21773;50.010;19.972;2023-04-06T03:23:03;99089.88;;;5.11;41.93
35655;BME280;21773;50.010;19.972;2023-04-06T03:26:31;99089.59;;;5.06;41.72
35655;BME280;21773;50.010;19.972;2023-04-06T03:29:38;99089.88;;;5.11;41.78
35655;BME280;21773;50.010;19.972;2023-04-06T03:33:03;99076.59;;;5.03;41.57
35655;BME280;21773;50.010;19.972;2023-04-06T03:36:34;99104.06;;;5.11;41.40
35655;BME280;21773;50.010;19.972;2023-04-06T03:39:56;99097.91;;;5.11;41.55
35655;BME280;21773;50.010;19.972;2023-04-06T03:43:18;99103.25;;;5.11;41.77
35655;BME280;21773;50.010;19.972;2023-04-06T03:46:22;99104.06;;;5.11;41.59
35655;BME280;21773;50.010;19.972;2023-04-06T03:49:30;99103.91;;;5.13;41.69
35655;BME280;21773;50.010;19.972;2023-04-06T03:52:54;99103.91;;;5.13;41.53
35655;BME280;21773;50.010;19.972;2023-04-06T03:56:16;99095.59;;;5.08;41.71
35655;BME280;21773;50.010;19.972;2023-04-06T03:59:38;99094.56;;;5.09;41.65
35655;BME280;21773;50.010;19.972;2023-04-06T04:02:42;99082.97;;;5.02;41.53
35655;BME280;21773;50.010;19.972;2023-04-06T04:06:04;99103.25;;;5.11;41.65
35655;BME280;21773;50.010;19.972;2023-04-06T04:09:27;99094.56;;;5.09;41.47
35655;BME280;21773;50.010;19.972;2023-04-06T04:12:31;99099.06;;;5.08;41.74
35655;BME280;21773;50.010;19.972;2023-04-06T04:15:53;99099.44;;;5.05;42.08
35655;BME280;21773;50.010;19.972;2023-04-06T04:18:56;99098.31;;;5.00;41.62
35655;BME280;21773;50.010;19.972;2023-04-06T04:22:19;99099.28;;;5.07;41.73
35655;BME280;21773;50.010;19.972;2023-04-06T04:25:24;99093.38;;;5.11;41.55
35655;BME280;21773;50.010;19.972;2023-04-06T04:28:47;99086.00;;;5.13;41.85
35655;BME280;21773;50.010;19.972;2023-04-06T04:32:09;99094.84;;;5.14;42.59
35655;BME280;21773;50.010;19.972;2023-04-06T04:35:31;99094.56;;;5.09;43.02
35655;BME280;21773;50.010;19.972;2023-04-06T04:38:53;99092.94;;;5.08;42.74
35655;BME280;21773;50.010;19.972;2023-04-06T04:42:17;99098.91;;;5.10;42.88
35655;BME280;21773;50.010;19.972;2023-04-06T04:45:43;99076.41;;;5.04;43.40
35655;BME280;21773;50.010;19.972;2023-04-06T04:49:05;99099.09;;;5.23;43.59
35655;BME280;21773;50.010;19.972;2023-04-06T04:52:29;99093.31;;;5.34;43.17
35655;BME280;21773;50.010;19.972;2023-04-06T04:56:06;99093.41;;;5.41;43.33
35655;BME280;21773;50.010;19.972;2023-04-06T04:59:29;99069.72;;;5.38;43.24
35655;BME280;21773;50.010;19.972;2023-04-06T05:02:39;99093.25;;;5.57;43.14
35655;BME280;21773;50.010;19.972;2023-04-06T05:06:09;99086.41;;;5.69;42.89
35655;BME280;21773;50.010;19.972;2023-04-06T05:09:15;99085.66;;;5.75;42.80
35655;BME280;21773;50.010;19.972;2023-04-06T05:12:19;99085.84;;;5.88;42.51
35655;BME280;21773;50.010;19.972;2023-04-06T05:15:35;99086.56;;;5.97;42.55
35655;BME280;21773;50.010;19.972;2023-04-06T05:19:07;99086.38;;;6.13;42.15
35655;BME280;21773;50.010;19.972;2023-04-06T05:22:36;99079.50;;;6.25;42.19
35655;BME280;21773;50.010;19.972;2023-04-06T05:26:01;99078.69;;;6.46;41.36
35655;BME280;21773;50.010;19.972;2023-04-06T05:29:23;99080.47;;;6.60;41.08
35655;BME280;21773;50.010;19.972;2023-04-06T05:32:47;99083.06;;;6.75;41.08
35655;BME280;21773;50.010;19.972;2023-04-06T05:36:09;99079.06;;;6.85;40.74
35655;BME280;21773;50.010;19.972;2023-04-06T05:39:18;99073.56;;;6.93;40.19
35655;BME280;21773;50.010;19.972;2023-04-06T05:42:26;99076.09;;;7.02;40.03
35655;BME280;21773;50.010;19.972;2023-04-06T05:45:32;99078.63;;;7.10;39.73
35655;BME280;21773;50.010;19.972;2023-04-06T05:48:41;99068.81;;;7.17;39.57
35655;BME280;21773;50.010;19.972;2023-04-06T05:52:05;99076.25;;;7.21;39.48
35655;BME280;21773;50.010;19.972;2023-04-06T05:55:09;99070.94;;;7.28;39.37
35655;BME280;21773;50.010;19.972;2023-04-06T05:58:16;99073.03;;;7.32;38.93
35655;BME280;21773;50.010;19.972;2023-04-06T06:01:41;99078.88;;;7.43;38.83
35655;BME280;21773;50.010;19.972;2023-04-06T06:05:05;99076.88;;;7.51;38.81
35655;BME280;21773;50.010;19.972;2023-04-06T06:08:09;99068.41;;;7.48;38.20
35655;BME280;21773;50.010;19.972;2023-04-06T06:11:12;99072.56;;;7.57;36.63
35655;BME280;21773;50.010;19.972;2023-04-06T06:14:35;99074.88;;;7.66;36.55
35655;BME280;21773;50.010;19.972;2023-04-06T06:17:57;99078.22;;;7.75;35.73
35655;BME280;21773;50.010;19.972;2023-04-06T06:21:21;99082.00;;;7.87;35.07
35655;BME280;21773;50.010;19.972;2023-04-06T06:24:43;99087.41;;;7.94;35.22
35655;BME280;21773;50.010;19.972;2023-04-06T06:28:07;99077.44;;;7.88;34.54
35655;BME280;21773;50.010;19.972;2023-04-06T06:31:11;99076.69;;;8.00;34.92
35655;BME280;21773;50.010;19.972;2023-04-06T06:34:15;99074.84;;;8.07;34.86
35655;BME280;21773;50.010;19.972;2023-04-06T06:37:38;99083.16;;;8.19;34.22
35655;BME280;21773;50.010;19.972;2023-04-06T06:41:05;99077.59;;;8.27;34.31
35655;BME280;21773;50.010;19.972;2023-04-06T06:44:29;99079.72;;;8.32;34.01
35655;BME280;21773;50.010;19.972;2023-04-06T06:47:33;99076.41;;;8.30;33.63
35655;BME280;21773;50.010;19.972;2023-04-06T06:50:55;99077.03;;;8.32;33.70
35655;BME280;21773;50.010;19.972;2023-04-06T06:54:18;99075.81;;;8.34;33.46
35655;BME280;21773;50.010;19.972;2023-04-06T06:57:39;99082.13;;;8.26;33.61
35655;BME280;21773;50.010;19.972;2023-04-06T07:01:03;99075.94;;;8.19;33.78
35655;BME280;21773;50.010;19.972;2023-04-06T07:04:27;99078.81;;;8.18;33.38
35655;BME280;21773;50.010;19.972;2023-04-06T07:07:49;99084.41;;;8.23;34.20
35655;BME280;21773;50.010;19.972;2023-04-06T07:11:12;99072.47;;;8.32;34.11
35655;BME280;21773;50.010;19.972;2023-04-06T07:14:34;99080.75;;;8.37;33.72
35655;BME280;21773;50.010;19.972;2023-04-06T07:17:57;99079.75;;;8.45;33.68
35655;BME280;21773;50.010;19.972;2023-04-06T07:21:20;99075.03;;;8.60;33.63
35655;BME280;21773;50.010;19.972;2023-04-06T07:24:41;99079.38;;;8.61;33.59
35655;BME280;21773;50.010;19.972;2023-04-06T07:28:04;99080.19;;;8.61;33.88
35655;BME280;21773;50.010;19.972;2023-04-06T07:31:28;99080.59;;;8.65;32.86
35655;BME280;21773;50.010;19.972;2023-04-06T07:34:51;99085.59;;;8.75;33.26
35655;BME280;21773;50.010;19.972;2023-04-06T07:38:12;99082.25;;;8.66;33.04
35655;BME280;21773;50.010;19.972;2023-04-06T07:41:34;99080.41;;;8.66;33.23
35655;BME280;21773;50.010;19.972;2023-04-06T07:44:57;99074.44;;;8.64;32.76
35655;BME280;21773;50.010;19.972;2023-04-06T07:48:20;99081.66;;;8.64;32.58
35655;BME280;21773;50.010;19.972;2023-04-06T07:51:42;99077.06;;;8.51;32.83
35655;BME280;21773;50.010;19.972;2023-04-06T07:55:04;99068.41;;;8.49;33.29
35655;BME280;21773;50.010;19.972;2023-04-06T07:58:27;99068.41;;;8.49;33.57
35655;BME280;21773;50.010;19.972;2023-04-06T08:01:49;99064.69;;;8.63;33.16
35655;BME280;21773;50.010;19.972;2023-04-06T08:05:11;99073.41;;;8.79;32.90
35655;BME280;21773;50.010;19.972;2023-04-06T08:08:33;99062.22;;;8.95;32.71
35655;BME280;21773;50.010;19.972;2023-04-06T08:11:55;99051.91;;;9.18;32.74
35655;BME280;21773;50.010;19.972;2023-04-06T08:14:58;99048.97;;;9.33;32.31
35655;BME280;21773;50.010;19.972;2023-04-06T08:18:04;99053.44;;;9.58;31.92
35655;BME280;21773;50.010;19.972;2023-04-06T08:21:07;99051.97;;;9.76;32.40
35655;BME280;21773;50.010;19.972;2023-04-06T08:24:11;99053.19;;;9.86;31.56
35655;BME280;21773;50.010;19.972;2023-04-06T08:27:16;99050.84;;;9.96;31.25
35655;BME280;21773;50.010;19.972;2023-04-06T08:30:19;99048.91;;;10.10;30.79
35655;BME280;21773;50.010;19.972;2023-04-06T08:33:24;99042.91;;;10.21;30.70
35655;BME280;21773;50.010;19.972;2023-04-06T08:36:27;99044.84;;;10.39;30.32
35655;BME280;21773;50.010;19.972;2023-04-06T08:39:31;99039.13;;;10.85;30.20
35655;BME280;21773;50.010;19.972;2023-04-06T08:42:40;99032.69;;;11.11;29.33
35655;BME280;21773;50.010;19.972;2023-04-06T08:45:44;99035.81;;;11.51;29.42
35655;BME280;21773;50.010;19.972;2023-04-06T08:48:48;99026.69;;;11.88;28.67
35655;BME280;21773;50.010;19.972;2023-04-06T08:51:52;99031.94;;;11.83;28.38
35655;BME280;21773;50.010;19.972;2023-04-06T08:54:56;99030.63;;;11.92;28.46
35655;BME280;21773;50.010;19.972;2023-04-06T08:58:00;99010.13;;;11.85;28.07
35655;BME280;21773;50.010;19.972;2023-04-06T09:01:06;99025.69;;;11.64;28.14
35655;BME280;21773;50.010;19.972;2023-04-06T09:04:12;99014.13;;;11.39;28.72
35655;BME280;21773;50.010;19.972;2023-04-06T09:07:16;99017.84;;;11.20;28.83
35655;BME280;21773;50.010;19.972;2023-04-06T09:10:19;99010.63;;;10.96;29.12
35655;BME280;21773;50.010;19.972;2023-04-06T09:13:25;99016.34;;;10.81;29.61
35655;BME280;21773;50.010;19.972;2023-04-06T09:16:38;99017.50;;;10.67;29.53
35655;BME280;21773;50.010;19.972;2023-04-06T09:19:47;99023.91;;;10.66;30.08
35655;BME280;21773;50.010;19.972;2023-04-06T09:22:51;99013.25;;;10.53;29.62
35655;BME280;21773;50.010;19.972;2023-04-06T09:26:05;99011.66;;;10.45;30.24
35655;BME280;21773;50.010;19.972;2023-04-06T09:29:08;99004.88;;;10.36;30.08
35655;BME280;21773;50.010;19.972;2023-04-06T09:32:12;99007.44;;;10.24;30.67
35655;BME280;21773;50.010;19.972;2023-04-06T09:35:21;99001.56;;;10.34;30.67
35655;BME280;21773;50.010;19.972;2023-04-06T09:38:24;99008.19;;;10.31;30.48
35655;BME280;21773;50.010;19.972;2023-04-06T09:41:29;98994.16;;;10.23;30.46
35655;BME280;21773;50.010;19.972;2023-04-06T09:44:32;99005.31;;;10.26;30.87
35655;BME280;21773;50.010;19.972;2023-04-06T09:47:37;99004.16;;;10.16;31.48
35655;BME280;21773;50.010;19.972;2023-04-06T09:50:43;98995.00;;;10.23;31.32
35655;BME280;21773;50.010;19.972;2023-04-06T09:53:51;98997.41;;;10.31;31.63
35655;BME280;21773;50.010;19.972;2023-04-06T09:56:57;99002.81;;;10.31;31.64
35655;BME280;21773;50.010;19.972;2023-04-06T10:00:03;98975.81;;;10.07;31.77
35655;BME280;21773;50.010;19.972;2023-04-06T10:03:17;98997.47;;;10.25;32.05
35655;BME280;21773;50.010;19.972;2023-04-06T10:06:27;98990.44;;;10.24;32.12
35655;BME280;21773;50.010;19.972;2023-04-06T10:09:31;98995.44;;;10.20;32.61
35655;BME280;21773;50.010;19.972;2023-04-06T10:12:39;99000.72;;;10.33;32.59
35655;BME280;21773;50.010;19.972;2023-04-06T10:15:43;99004.47;;;10.32;32.88
35655;BME280;21773;50.010;19.972;2023-04-06T10:18:52;98991.91;;;10.13;33.94
35655;BME280;21773;50.010;19.972;2023-04-06T10:21:59;98990.88;;;10.14;33.59
35655;BME280;21773;50.010;19.972;2023-04-06T10:25:04;99001.25;;;10.11;34.09
35655;BME280;21773;50.010;19.972;2023-04-06T10:28:08;99000.63;;;10.09;34.63
35655;BME280;21773;50.010;19.972;2023-04-06T10:31:12;98990.13;;;10.00;35.59
35655;BME280;21773;50.010;19.972;2023-04-06T10:34:15;98981.72;;;9.84;36.20
35655;BME280;21773;50.010;19.972;2023-04-06T10:37:20;98984.00;;;9.87;36.67
35655;BME280;21773;50.010;19.972;2023-04-06T10:40:25;98988.59;;;9.73;38.73
35655;BME280;21773;50.010;19.972;2023-04-06T10:43:33;98988.47;;;9.55;39.36
35655;BME280;21773;50.010;19.972;2023-04-06T10:46:36;98983.50;;;9.52;39.59
35655;BME280;21773;50.010;19.972;2023-04-06T10:49:40;98986.22;;;9.39;40.14
35655;BME280;21773;50.010;19.972;2023-04-06T10:52:45;98977.75;;;9.42;39.18
35655;BME280;21773;50.010;19.972;2023-04-06T10:55:49;98984.78;;;9.43;40.19
35655;BME280;21773;50.010;19.972;2023-04-06T10:58:54;98977.56;;;9.30;39.80
35655;BME280;21773;50.010;19.972;2023-04-06T11:01:58;98974.88;;;9.30;40.31
35655;BME280;21773;50.010;19.972;2023-04-06T11:05:02;98975.00;;;9.48;39.74
35655;BME280;21773;50.010;19.972;2023-04-06T11:08:07;98964.94;;;9.37;39.79
35655;BME280;21773;50.010;19.972;2023-04-06T11:11:12;98959.75;;;9.29;41.25
35655;BME280;21773;50.010;19.972;2023-04-06T11:14:17;98963.91;;;9.25;40.37
35655;BME280;21773;50.010;19.972;2023-04-06T11:17:25;98965.59;;;9.20;40.89
35655;BME280;21773;50.010;19.972;2023-04-06T11:20:29;98960.00;;;9.21;41.13
35655;BME280;21773;50.010;19.972;2023-04-06T11:23:33;98964.13;;;9.24;41.56
35655;BME280;21773;50.010;19.972;2023-04-06T11:26:41;98962.69;;;9.21;41.79
35655;BME280;21773;50.010;19.972;2023-04-06T11:29:47;98964.59;;;9.07;42.11
35655;BME280;21773;50.010;19.972;2023-04-06T11:32:51;98956.53;;;9.01;42.71
35655;BME280;21773;50.010;19.972;2023-04-06T11:35:57;98955.09;;;8.98;42.74
35655;BME280;21773;50.010;19.972;2023-04-06T11:39:02;98958.00;;;8.97;43.03
35655;BME280;21773;50.010;19.972;2023-04-06T11:42:06;98961.75;;;8.89;43.40
35655;BME280;21773;50.010;19.972;2023-04-06T11:45:15;98947.03;;;8.85;43.78
35655;BME280;21773;50.010;19.972;2023-04-06T11:48:19;98947.47;;;8.89;44.20
35655;BME280;21773;50.010;19.972;2023-04-06T11:51:26;98957.16;;;8.96;44.42
35655;BME280;21773;50.010;19.972;2023-04-06T11:54:32;98949.88;;;9.10;43.84
35655;BME280;21773;50.010;19.972;2023-04-06T11:57:35;98957.75;;;9.11;44.60
35655;BME280;21773;50.010;19.972;2023-04-06T12:00:39;98947.19;;;9.10;44.90
35655;BME280;21773;50.010;19.972;2023-04-06T12:03:49;98939.75;;;9.05;45.02
35655;BME280;21773;50.010;19.972;2023-04-06T12:06:53;98936.03;;;9.00;45.28
35655;BME280;21773;50.010;19.972;2023-04-06T12:09:58;98935.44;;;8.91;45.58
35655;BME280;21773;50.010;19.972;2023-04-06T12:13:01;98935.69;;;8.83;46.16
35655;BME280;21773;50.010;19.972;2023-04-06T12:16:05;98941.88;;;8.84;46.70
35655;BME280;21773;50.010;19.972;2023-04-06T12:19:09;98938.13;;;8.85;46.58
35655;BME280;21773;50.010;19.972;2023-04-06T12:22:12;98929.28;;;8.78;46.60
35655;BME280;21773;50.010;19.972;2023-04-06T12:25:17;98933.81;;;8.77;47.24
35655;BME280;21773;50.010;19.972;2023-04-06T12:28:20;98938.38;;;8.77;47.71
35655;BME280;21773;50.010;19.972;2023-04-06T12:31:25;98934.25;;;8.74;47.73
35655;BME280;21773;50.010;19.972;2023-04-06T12:34:28;98933.81;;;8.84;47.81
35655;BME280;21773;50.010;19.972;2023-04-06T12:37:32;98924.94;;;8.77;47.38
35655;BME280;21773;50.010;19.972;2023-04-06T12:40:38;98924.34;;;8.75;47.46
35655;BME280;21773;50.010;19.972;2023-04-06T12:43:42;98917.50;;;8.72;47.79
35655;BME280;21773;50.010;19.972;2023-04-06T12:46:45;98918.13;;;8.67;48.25
35655;BME280;21773;50.010;19.972;2023-04-06T12:49:49;98910.50;;;8.64;48.35
35655;BME280;21773;50.010;19.972;2023-04-06T12:52:52;98912.16;;;8.59;48.23
35655;BME280;21773;50.010;19.972;2023-04-06T12:55:57;98910.50;;;8.45;48.60
35655;BME280;21773;50.010;19.972;2023-04-06T12:59:01;98911.53;;;8.37;48.79
35655;BME280;21773;50.010;19.972;2023-04-06T13:02:04;98911.06;;;8.27;48.79
35655;BME280;21773;50.010;19.972;2023-04-06T13:05:08;98904.50;;;8.30;49.20
35655;BME280;21773;50.010;19.972;2023-04-06T13:08:12;98898.72;;;8.33;49.32
35655;BME280;21773;50.010;19.972;2023-04-06T13:11:17;98899.13;;;8.36;49.45
35655;BME280;21773;50.010;19.972;2023-04-06T13:14:22;98886.31;;;8.32;49.67
35655;BME280;21773;50.010;19.972;2023-04-06T13:17:27;98888.56;;;8.15;50.07
35655;BME280;21773;50.010;19.972;2023-04-06T13:20:30;98883.59;;;8.05;50.32
35655;BME280;21773;50.010;19.972;2023-04-06T13:23:34;98886.28;;;8.12;50.01
35655;BME280;21773;50.010;19.972;2023-04-06T13:26:39;98870.97;;;7.93;50.49
35655;BME280;21773;50.010;19.972;2023-04-06T13:29:42;98872.63;;;7.80;51.10
35655;BME280;21773;50.010;19.972;2023-04-06T13:32:45;98875.50;;;7.79;51.23
35655;BME280;21773;50.010;19.972;2023-04-06T13:35:49;98880.88;;;7.79;51.25
35655;BME280;21773;50.010;19.972;2023-04-06T13:38:53;98863.97;;;7.72;52.10
35655;BME280;21773;50.010;19.972;2023-04-06T13:41:58;98874.06;;;7.83;51.54
35655;BME280;21773;50.010;19.972;2023-04-06T13:45:05;98873.44;;;7.88;51.33
35655;BME280;21773;50.010;19.972;2023-04-06T13:48:08;98872.22;;;7.90;51.64
35655;BME280;21773;50.010;19.972;2023-04-06T13:51:13;98875.75;;;8.04;51.48
35655;BME280;21773;50.010;19.972;2023-04-06T13:54:16;98872.22;;;7.90;51.62
35655;BME280;21773;50.010;19.972;2023-04-06T13:57:21;98870.16;;;7.92;51.58
35655;BME280;21773;50.010;19.972;2023-04-06T14:00:24;98875.13;;;7.95;51.95
35655;BME280;21773;50.010;19.972;2023-04-06T14:03:28;98879.88;;;7.93;51.63
35655;BME280;21773;50.010;19.972;2023-04-06T14:06:31;98880.47;;;7.89;51.72
35655;BME280;21773;50.010;19.972;2023-04-06T14:09:35;98872.22;;;7.90;51.86
35655;BME280;21773;50.010;19.972;2023-04-06T14:12:46;98877.38;;;7.92;51.55
35655;BME280;21773;50.010;19.972;2023-04-06T14:15:55;98866.66;;;7.85;51.82
35655;BME280;21773;50.010;19.972;2023-04-06T14:18:59;98878.44;;;7.91;52.23
35655;BME280;21773;50.010;19.972;2023-04-06T14:22:03;98884.19;;;7.88;52.26
35655;BME280;21773;50.010;19.972;2023-04-06T14:25:07;98884.00;;;7.89;52.49
35655;BME280;21773;50.010;19.972;2023-04-06T14:28:13;98879.44;;;7.83;51.96
35655;BME280;21773;50.010;19.972;2023-04-06T14:31:16;98881.50;;;7.88;52.36
35655;BME280;21773;50.010;19.972;2023-04-06T14:34:19;98882.56;;;7.93;52.16
35655;BME280;21773;50.010;19.972;2023-04-06T14:37:23;98882.56;;;8.00;51.92
35655;BME280;21773;50.010;19.972;2023-04-06T14:40:26;98880.06;;;7.85;52.46
35655;BME280;21773;50.010;19.972;2023-04-06T14:43:31;98886.06;;;7.94;52.11
35655;BME280;21773;50.010;19.972;2023-04-06T14:46:34;98881.31;;;8.02;52.07
35655;BME280;21773;50.010;19.972;2023-04-06T14:49:37;98880.09;;;8.05;52.30
35655;BME280;21773;50.010;19.972;2023-04-06T14:52:41;98881.09;;;7.84;52.20
35655;BME280;21773;50.010;19.972;2023-04-06T14:55:44;98881.31;;;7.89;52.22
35655;BME280;21773;50.010;19.972;2023-04-06T14:58:49;98878.19;;;7.92;52.00
35655;BME280;21773;50.010;19.972;2023-04-06T15:01:53;98880.06;;;7.92;52.11
35655;BME280;21773;50.010;19.972;2023-04-06T15:04:57;98881.53;;;8.01;51.78
35655;BME280;21773;50.010;19.972;2023-04-06T15:08:00;98887.50;;;8.03;51.75
35655;BME280;21773;50.010;19.972;2023-04-06T15:11:03;98877.00;;;8.14;51.51
35655;BME280;21773;50.010;19.972;2023-04-06T15:14:08;98865.22;;;7.96;51.92
35655;BME280;21773;50.010;19.972;2023-04-06T15:17:11;98876.59;;;8.11;51.39
35655;BME280;21773;50.010;19.972;2023-04-06T15:20:15;98871.81;;;8.06;51.27
35655;BME280;21773;50.010;19.972;2023-04-06T15:23:18;98873.88;;;7.98;51.85
35655;BME280;21773;50.010;19.972;2023-04-06T15:26:22;98875.31;;;8.07;51.49
35655;BME280;21773;50.010;19.972;2023-04-06T15:29:26;98880.28;;;7.97;52.39
35655;BME280;21773;50.010;19.972;2023-04-06T15:32:29;98875.97;;;7.96;52.19
35655;BME280;21773;50.010;19.972;2023-04-06T15:35:34;98868.53;;;7.91;51.92
35655;BME280;21773;50.010;19.972;2023-04-06T15:38:41;98881.31;;;7.96;52.39
35655;BME280;21773;50.010;19.972;2023-04-06T15:41:44;98878.41;;;7.97;52.10
35655;BME280;21773;50.010;19.972;2023-04-06T15:44:49;98878.44;;;8.04;52.01
35655;BME280;21773;50.010;19.972;2023-04-06T15:47:52;98882.34;;;8.08;52.16
35655;BME280;21773;50.010;19.972;2023-04-06T15:50:56;98873.91;;;8.04;52.08
35655;BME280;21773;50.010;19.972;2023-04-06T15:53:59;98881.53;;;8.01;52.14
35655;BME280;21773;50.010;19.972;2023-04-06T15:57:03;98875.13;;;7.95;52.60
35655;BME280;21773;50.010;19.972;2023-04-06T16:00:09;98873.91;;;7.91;52.89
35655;BME280;21773;50.010;19.972;2023-04-06T16:03:12;98881.94;;;7.84;53.46
35655;BME280;21773;50.010;19.972;2023-04-06T16:06:16;98888.13;;;7.92;53.02
35655;BME280;21773;50.010;19.972;2023-04-06T16:09:20;98885.63;;;7.83;53.08
35655;BME280;21773;50.010;19.972;2023-04-06T16:12:23;98864.34;;;7.62;53.51
35655;BME280;21773;50.010;19.972;2023-04-06T16:15:31;98884.38;;;7.73;53.40
35655;BME280;21773;50.010;19.972;2023-04-06T16:18:34;98884.19;;;7.74;53.49
35655;BME280;21773;50.010;19.972;2023-04-06T16:21:37;98878.38;;;7.77;53.53
35655;BME280;21773;50.010;19.972;2023-04-06T16:24:41;98892.00;;;7.69;53.82
35655;BME280;21773;50.010;19.972;2023-04-06T16:27:45;98890.13;;;7.57;54.30
35655;BME280;21773;50.010;19.972;2023-04-06T16:30:51;98890.53;;;7.47;54.59
35655;BME280;21773;50.010;19.972;2023-04-06T16:33:55;98883.50;;;7.53;54.61
35655;BME280;21773;50.010;19.972;2023-04-06T16:36:59;98884.53;;;7.58;54.28
35655;BME280;21773;50.010;19.972;2023-04-06T16:40:03;98886.41;;;7.58;54.36
35655;BME280;21773;50.010;19.972;2023-04-06T16:43:07;98881.03;;;7.58;54.42
35655;BME280;21773;50.010;19.972;2023-04-06T16:46:12;98872.53;;;7.41;54.40
35655;BME280;21773;50.010;19.972;2023-04-06T16:49:16;98878.72;;;7.48;54.47